sensor_id;sensor_type;location;lat;lon;timestamp;P1;durP1;ratioP1;P2;durP2;ratioP2
34353;SDS011;20618;0.000;0.000;2023-04-28T00:01:13;3.38;;;2.63;;
34353;SDS011;20618;0.000;0.000;2023-04-28T00:03:40;2.78;;;2.42;;
34353;SDS011;20618;0.000;0.000;2023-04-28T00:06:06;2.90;;;2.50;;
34353;SDS011;20618;0.000;0.000;2023-04-28T00:08:32;3.30;;;2.50;;
34353;SDS011;20618;0.000;0.000;2023-04-28T00:10:58;3.90;;;2.60;;
34353;SDS011;20618;0.000;0.000;2023-04-28T00:13:25;3.63;;;2.50;;
34353;SDS011;20618;0.000;0.000;2023-04-28T00:15:51;3.15;;;2.40;;
34353;SDS011;20618;0.000;0.000;2023-04-28T00:18:18;2.97;;;2.38;;
34353;SDS011;20618;0.000;0.000;2023-04-28T00:20:44;3.35;;;2.80;;
34353;SDS011;20618;0.000;0.000;2023-04-28T00:23:10;3.15;;;2.50;;
34353;SDS011;20618;0.000;0.000;2023-04-28T00:25:37;3.70;;;2.65;;
34353;SDS011;20618;0.000;0.000;2023-04-28T00:28:03;3.35;;;2.58;;
34353;SDS011;20618;0.000;0.000;2023-04-28T00:30:29;3.08;;;2.38;;
34353;SDS011;20618;0.000;0.000;2023-04-28T00:32:55;3.78;;;2.40;;
34353;SDS011;20618;0.000;0.000;2023-04-28T00:35:22;3.63;;;2.55;;
34353;SDS011;20618;0.000;0.000;2023-04-28T00:37:48;3.80;;;2.88;;
34353;SDS011;20618;0.000;0.000;2023-04-28T00:40:14;3.20;;;2.38;;
34353;SDS011;20618;0.000;0.000;2023-04-28T00:42:40;2.85;;;2.17;;
34353;SDS011;20618;0.000;0.000;2023-04-28T00:45:06;3.83;;;2.72;;
34353;SDS011;20618;0.000;0.000;2023-04-28T00:47:33;3.67;;;2.50;;
34353;SDS011;20618;0.000;0.000;2023-04-28T00:49:59;2.95;;;2.40;;
34353;SDS011;20618;0.000;0.000;2023-04-28T00:52:26;2.63;;;2.10;;
34353;SDS011;20618;0.000;0.000;2023-04-28T00:54:53;3.28;;;2.22;;
34353;SDS011;20618;0.000;0.000;2023-04-28T00:57:21;3.40;;;2.70;;
34353;SDS011;20618;0.000;0.000;2023-04-28T00:59:47;4.10;;;2.30;;
34353;SDS011;20618;0.000;0.000;2023-04-28T01:02:13;2.63;;;2.10;;
34353;SDS011;20618;0.000;0.000;2023-04-28T01:04:46;2.72;;;2.10;;
34353;SDS011;20618;0.000;0.000;2023-04-28T01:07:13;2.53;;;2.20;;
34353;SDS011;20618;0.000;0.000;2023-04-28T01:09:39;2.95;;;2.47;;
34353;SDS011;20618;0.000;0.000;2023-04-28T01:12:05;3.30;;;2.30;;
34353;SDS011;20618;0.000;0.000;2023-04-28T01:14:32;4.18;;;2.72;;
34353;SDS011;20618;0.000;0.000;2023-04-28T01:16:58;3.08;;;2.50;;
34353;SDS011;20618;0.000;0.000;2023-04-28T01:19:24;4.50;;;2.38;;
34353;SDS011;20618;0.000;0.000;2023-04-28T01:21:52;2.80;;;2.33;;
34353;SDS011;20618;0.000;0.000;2023-04-28T01:24:18;3.40;;;2.55;;
34353;SDS011;20618;0.000;0.000;2023-04-28T01:26:44;3.30;;;2.17;;
34353;SDS011;20618;0.000;0.000;2023-04-28T01:29:10;3.42;;;2.55;;
34353;SDS011;20618;0.000;0.000;2023-04-28T01:31:36;3.35;;;2.33;;
34353;SDS011;20618;0.000;0.000;2023-04-28T01:34:03;3.78;;;2.20;;
34353;SDS011;20618;0.000;0.000;2023-04-28T01:36:29;2.72;;;2.30;;
34353;SDS011;20618;0.000;0.000;2023-04-28T01:38:56;3.22;;;2.22;;
34353;SDS011;20618;0.000;0.000;2023-04-28T01:41:22;3.28;;;2.42;;
34353;SDS011;20618;0.000;0.000;2023-04-28T01:43:48;3.17;;;2.47;;
34353;SDS011;20618;0.000;0.000;2023-04-28T01:46:15;3.88;;;2.40;;
34353;SDS011;20618;0.000;0.000;2023-04-28T01:48:41;3.28;;;2.17;;
34353;SDS011;20618;0.000;0.000;2023-04-28T01:51:07;2.67;;;2.35;;
34353;SDS011;20618;0.000;0.000;2023-04-28T01:53:33;3.22;;;2.42;;
34353;SDS011;20618;0.000;0.000;2023-04-28T01:55:59;2.75;;;2.30;;
34353;SDS011;20618;0.000;0.000;2023-04-28T01:58:26;3.17;;;2.25;;
34353;SDS011;20618;0.000;0.000;2023-04-28T02:00:53;3.30;;;2.50;;
34353;SDS011;20618;0.000;0.000;2023-04-28T02:03:19;3.15;;;2.30;;
34353;SDS011;20618;0.000;0.000;2023-04-28T02:05:45;3.63;;;2.53;;
34353;SDS011;20618;0.000;0.000;2023-04-28T02:08:11;3.50;;;2.53;;
34353;SDS011;20618;0.000;0.000;2023-04-28T02:10:37;4.30;;;2.45;;
34353;SDS011;20618;0.000;0.000;2023-04-28T02:13:03;3.50;;;2.50;;
34353;SDS011;20618;0.000;0.000;2023-04-28T02:15:30;2.70;;;2.25;;
34353;SDS011;20618;0.000;0.000;2023-04-28T02:17:56;3.55;;;2.72;;
34353;SDS011;20618;0.000;0.000;2023-04-28T02:20:22;3.28;;;2.70;;
34353;SDS011;20618;0.000;0.000;2023-04-28T02:22:49;3.00;;;2.35;;
34353;SDS011;20618;0.000;0.000;2023-04-28T02:25:15;4.18;;;2.42;;
34353;SDS011;20618;0.000;0.000;2023-04-28T02:27:41;3.13;;;2.15;;
34353;SDS011;20618;0.000;0.000;2023-04-28T02:30:07;3.95;;;2.58;;
34353;SDS011;20618;0.000;0.000;2023-04-28T02:32:34;3.30;;;2.42;;
34353;SDS011;20618;0.000;0.000;2023-04-28T02:35:00;3.95;;;2.38;;
34353;SDS011;20618;0.000;0.000;2023-04-28T02:37:26;3.13;;;2.30;;
34353;SDS011;20618;0.000;0.000;2023-04-28T02:39:52;2.42;;;2.20;;
34353;SDS011;20618;0.000;0.000;2023-04-28T02:42:19;2.90;;;2.42;;
34353;SDS011;20618;0.000;0.000;2023-04-28T02:44:45;3.63;;;2.25;;
34353;SDS011;20618;0.000;0.000;2023-04-28T02:47:11;2.67;;;2.40;;
34353;SDS011;20618;0.000;0.000;2023-04-28T02:49:37;2.97;;;2.08;;
34353;SDS011;20618;0.000;0.000;2023-04-28T02:52:03;3.38;;;2.50;;
34353;SDS011;20618;0.000;0.000;2023-04-28T02:54:30;3.00;;;2.20;;
34353;SDS011;20618;0.000;0.000;2023-04-28T02:56:58;3.72;;;2.33;;
34353;SDS011;20618;0.000;0.000;2023-04-28T02:59:25;2.28;;;2.00;;
34353;SDS011;20618;0.000;0.000;2023-04-28T03:01:51;3.58;;;2.30;;
34353;SDS011;20618;0.000;0.000;2023-04-28T03:04:18;2.25;;;1.80;;
34353;SDS011;20618;0.000;0.000;2023-04-28T03:06:44;3.13;;;2.40;;
34353;SDS011;20618;0.000;0.000;2023-04-28T03:09:11;3.75;;;2.10;;
34353;SDS011;20618;0.000;0.000;2023-04-28T03:11:38;2.30;;;2.08;;
34353;SDS011;20618;0.000;0.000;2023-04-28T03:14:04;2.83;;;2.10;;
34353;SDS011;20618;0.000;0.000;2023-04-28T03:16:30;2.75;;;2.22;;
34353;SDS011;20618;0.000;0.000;2023-04-28T03:18:56;3.10;;;2.42;;
34353;SDS011;20618;0.000;0.000;2023-04-28T03:21:23;2.97;;;2.20;;
34353;SDS011;20618;0.000;0.000;2023-04-28T03:23:52;3.35;;;2.45;;
34353;SDS011;20618;0.000;0.000;2023-04-28T03:26:18;4.53;;;2.85;;
34353;SDS011;20618;0.000;0.000;2023-04-28T03:28:44;3.08;;;2.55;;
34353;SDS011;20618;0.000;0.000;2023-04-28T03:31:11;3.25;;;2.70;;
34353;SDS011;20618;0.000;0.000;2023-04-28T03:33:37;3.88;;;2.70;;
34353;SDS011;20618;0.000;0.000;2023-04-28T03:36:03;4.18;;;2.47;;
34353;SDS011;20618;0.000;0.000;2023-04-28T03:38:29;2.92;;;2.53;;
34353;SDS011;20618;0.000;0.000;2023-04-28T03:40:56;3.10;;;2.55;;
34353;SDS011;20618;0.000;0.000;2023-04-28T03:43:22;4.00;;;2.65;;
34353;SDS011;20618;0.000;0.000;2023-04-28T03:45:48;3.47;;;2.40;;
34353;SDS011;20618;0.000;0.000;2023-04-28T03:48:14;3.13;;;2.67;;
34353;SDS011;20618;0.000;0.000;2023-04-28T03:50:40;2.60;;;2.13;;
34353;SDS011;20618;0.000;0.000;2023-04-28T03:53:09;3.00;;;2.50;;
34353;SDS011;20618;0.000;0.000;2023-04-28T03:55:35;2.85;;;2.30;;
34353;SDS011;20618;0.000;0.000;2023-04-28T03:58:01;3.50;;;2.60;;
34353;SDS011;20618;0.000;0.000;2023-04-28T04:00:28;3.13;;;2.35;;
34353;SDS011;20618;0.000;0.000;2023-04-28T04:02:54;4.15;;;3.15;;
34353;SDS011;20618;0.000;0.000;2023-04-28T04:05:20;3.67;;;2.70;;
34353;SDS011;20618;0.000;0.000;2023-04-28T04:07:46;3.33;;;2.78;;
34353;SDS011;20618;0.000;0.000;2023-04-28T04:10:13;2.80;;;2.33;;
34353;SDS011;20618;0.000;0.000;2023-04-28T04:12:39;3.92;;;2.38;;
34353;SDS011;20618;0.000;0.000;2023-04-28T04:15:05;2.60;;;2.25;;
34353;SDS011;20618;0.000;0.000;2023-04-28T04:17:31;2.78;;;2.30;;
34353;SDS011;20618;0.000;0.000;2023-04-28T04:19:57;3.88;;;2.75;;
34353;SDS011;20618;0.000;0.000;2023-04-28T04:22:24;3.80;;;2.80;;
34353;SDS011;20618;0.000;0.000;2023-04-28T04:24:50;3.83;;;2.63;;
34353;SDS011;20618;0.000;0.000;2023-04-28T04:27:16;3.42;;;2.78;;
34353;SDS011;20618;0.000;0.000;2023-04-28T04:29:43;3.80;;;2.97;;
34353;SDS011;20618;0.000;0.000;2023-04-28T04:32:09;3.83;;;2.47;;
34353;SDS011;20618;0.000;0.000;2023-04-28T04:34:35;3.53;;;2.42;;
34353;SDS011;20618;0.000;0.000;2023-04-28T04:37:01;3.20;;;2.67;;
34353;SDS011;20618;0.000;0.000;2023-04-28T04:39:28;3.20;;;2.30;;
34353;SDS011;20618;0.000;0.000;2023-04-28T04:41:54;4.35;;;3.00;;
34353;SDS011;20618;0.000;0.000;2023-04-28T04:44:20;3.53;;;2.63;;
34353;SDS011;20618;0.000;0.000;2023-04-28T04:46:47;4.55;;;3.15;;
34353;SDS011;20618;0.000;0.000;2023-04-28T04:49:13;4.20;;;2.47;;
34353;SDS011;20618;0.000;0.000;2023-04-28T04:51:39;2.90;;;2.50;;
34353;SDS011;20618;0.000;0.000;2023-04-28T04:54:05;3.20;;;2.75;;
34353;SDS011;20618;0.000;0.000;2023-04-28T04:56:32;5.43;;;3.22;;
34353;SDS011;20618;0.000;0.000;2023-04-28T04:58:58;3.80;;;3.00;;
34353;SDS011;20618;0.000;0.000;2023-04-28T05:01:25;3.65;;;2.97;;
34353;SDS011;20618;0.000;0.000;2023-04-28T05:03:51;3.90;;;2.90;;
34353;SDS011;20618;0.000;0.000;2023-04-28T05:06:17;5.10;;;2.80;;
34353;SDS011;20618;0.000;0.000;2023-04-28T05:08:43;3.75;;;2.75;;
34353;SDS011;20618;0.000;0.000;2023-04-28T05:11:09;3.28;;;2.50;;
34353;SDS011;20618;0.000;0.000;2023-04-28T05:13:36;3.88;;;2.60;;
34353;SDS011;20618;0.000;0.000;2023-04-28T05:16:03;4.25;;;3.05;;
34353;SDS011;20618;0.000;0.000;2023-04-28T05:18:29;5.18;;;2.90;;
34353;SDS011;20618;0.000;0.000;2023-04-28T05:20:56;3.65;;;2.70;;
34353;SDS011;20618;0.000;0.000;2023-04-28T05:23:22;4.38;;;3.17;;
34353;SDS011;20618;0.000;0.000;2023-04-28T05:25:49;3.67;;;2.90;;
34353;SDS011;20618;0.000;0.000;2023-04-28T05:28:15;3.00;;;2.55;;
34353;SDS011;20618;0.000;0.000;2023-04-28T05:30:41;3.72;;;3.33;;
34353;SDS011;20618;0.000;0.000;2023-04-28T05:33:09;3.47;;;2.80;;
34353;SDS011;20618;0.000;0.000;2023-04-28T05:35:35;3.97;;;2.83;;
34353;SDS011;20618;0.000;0.000;2023-04-28T05:38:01;3.80;;;2.70;;
34353;SDS011;20618;0.000;0.000;2023-04-28T05:40:27;3.78;;;2.67;;
34353;SDS011;20618;0.000;0.000;2023-04-28T05:42:54;3.25;;;2.55;;
34353;SDS011;20618;0.000;0.000;2023-04-28T05:45:20;4.20;;;2.85;;
34353;SDS011;20618;0.000;0.000;2023-04-28T05:47:46;3.75;;;2.67;;
34353;SDS011;20618;0.000;0.000;2023-04-28T05:50:13;4.38;;;3.33;;
34353;SDS011;20618;0.000;0.000;2023-04-28T05:52:39;3.97;;;2.90;;
34353;SDS011;20618;0.000;0.000;2023-04-28T05:55:06;3.53;;;3.03;;
34353;SDS011;20618;0.000;0.000;2023-04-28T05:57:32;4.22;;;2.70;;
34353;SDS011;20618;0.000;0.000;2023-04-28T05:59:58;3.83;;;2.92;;
34353;SDS011;20618;0.000;0.000;2023-04-28T06:02:25;7.55;;;3.20;;
34353;SDS011;20618;0.000;0.000;2023-04-28T06:04:51;6.88;;;3.33;;
34353;SDS011;20618;0.000;0.000;2023-04-28T06:07:18;4.75;;;3.25;;
34353;SDS011;20618;0.000;0.000;2023-04-28T06:09:44;5.30;;;3.50;;
34353;SDS011;20618;0.000;0.000;2023-04-28T06:12:11;4.60;;;3.30;;
34353;SDS011;20618;0.000;0.000;2023-04-28T06:14:37;5.05;;;3.55;;
34353;SDS011;20618;0.000;0.000;2023-04-28T06:17:04;4.93;;;3.22;;
34353;SDS011;20618;0.000;0.000;2023-04-28T06:19:30;6.57;;;3.55;;
34353;SDS011;20618;0.000;0.000;2023-04-28T06:21:56;4.60;;;3.70;;
34353;SDS011;20618;0.000;0.000;2023-04-28T06:24:23;9.63;;;4.10;;
34353;SDS011;20618;0.000;0.000;2023-04-28T06:26:49;5.45;;;3.30;;
34353;SDS011;20618;0.000;0.000;2023-04-28T06:29:15;6.13;;;3.38;;
34353;SDS011;20618;0.000;0.000;2023-04-28T06:31:41;7.55;;;2.95;;
34353;SDS011;20618;0.000;0.000;2023-04-28T06:34:07;12.13;;;4.05;;
34353;SDS011;20618;0.000;0.000;2023-04-28T06:36:33;11.50;;;3.58;;
34353;SDS011;20618;0.000;0.000;2023-04-28T06:39:00;14.48;;;4.10;;
34353;SDS011;20618;0.000;0.000;2023-04-28T06:41:26;11.57;;;3.83;;
34353;SDS011;20618;0.000;0.000;2023-04-28T06:43:53;5.18;;;3.78;;
34353;SDS011;20618;0.000;0.000;2023-04-28T06:46:20;8.35;;;3.30;;
34353;SDS011;20618;0.000;0.000;2023-04-28T06:48:46;4.57;;;3.10;;
34353;SDS011;20618;0.000;0.000;2023-04-28T06:51:13;5.43;;;3.03;;
34353;SDS011;20618;0.000;0.000;2023-04-28T06:53:39;5.50;;;3.75;;
34353;SDS011;20618;0.000;0.000;2023-04-28T06:56:06;8.65;;;4.03;;
34353;SDS011;20618;0.000;0.000;2023-04-28T06:58:32;9.43;;;2.83;;
34353;SDS011;20618;0.000;0.000;2023-04-28T07:00:58;19.40;;;4.25;;
34353;SDS011;20618;0.000;0.000;2023-04-28T07:03:25;20.33;;;4.57;;
34353;SDS011;20618;0.000;0.000;2023-04-28T07:05:52;6.80;;;3.05;;
34353;SDS011;20618;0.000;0.000;2023-04-28T07:08:18;11.95;;;3.10;;
34353;SDS011;20618;0.000;0.000;2023-04-28T07:10:44;7.78;;;3.20;;
34353;SDS011;20618;0.000;0.000;2023-04-28T07:13:10;4.45;;;3.13;;
34353;SDS011;20618;0.000;0.000;2023-04-28T07:15:36;6.78;;;2.72;;
34353;SDS011;20618;0.000;0.000;2023-04-28T07:18:02;8.85;;;3.10;;
34353;SDS011;20618;0.000;0.000;2023-04-28T07:20:29;9.65;;;3.88;;
34353;SDS011;20618;0.000;0.000;2023-04-28T07:22:55;7.10;;;2.95;;
34353;SDS011;20618;0.000;0.000;2023-04-28T07:25:21;11.27;;;4.07;;
34353;SDS011;20618;0.000;0.000;2023-04-28T07:27:47;9.70;;;3.20;;
34353;SDS011;20618;0.000;0.000;2023-04-28T07:30:14;15.15;;;4.28;;
34353;SDS011;20618;0.000;0.000;2023-04-28T07:32:40;12.77;;;3.42;;
34353;SDS011;20618;0.000;0.000;2023-04-28T07:35:07;11.82;;;4.00;;
34353;SDS011;20618;0.000;0.000;2023-04-28T07:37:34;7.80;;;3.53;;
34353;SDS011;20618;0.000;0.000;2023-04-28T07:40:00;13.80;;;4.10;;
34353;SDS011;20618;0.000;0.000;2023-04-28T07:42:26;20.95;;;5.15;;
34353;SDS011;20618;0.000;0.000;2023-04-28T07:44:53;18.15;;;4.50;;
34353;SDS011;20618;0.000;0.000;2023-04-28T07:47:19;14.88;;;4.40;;
34353;SDS011;20618;0.000;0.000;2023-04-28T07:49:45;18.67;;;4.90;;
34353;SDS011;20618;0.000;0.000;2023-04-28T07:52:11;30.73;;;6.15;;
34353;SDS011;20618;0.000;0.000;2023-04-28T07:54:37;33.25;;;5.97;;
34353;SDS011;20618;0.000;0.000;2023-04-28T07:57:03;34.38;;;6.95;;
34353;SDS011;20618;0.000;0.000;2023-04-28T07:59:31;28.58;;;6.03;;
34353;SDS011;20618;0.000;0.000;2023-04-28T08:01:58;26.25;;;6.18;;
34353;SDS011;20618;0.000;0.000;2023-04-28T08:04:24;36.15;;;6.45;;
34353;SDS011;20618;0.000;0.000;2023-04-28T08:06:50;24.00;;;5.30;;
34353;SDS011;20618;0.000;0.000;2023-04-28T08:09:16;27.83;;;6.53;;
34353;SDS011;20618;0.000;0.000;2023-04-28T08:11:43;18.77;;;5.32;;
34353;SDS011;20618;0.000;0.000;2023-04-28T08:14:09;33.13;;;5.95;;
34353;SDS011;20618;0.000;0.000;2023-04-28T08:16:35;14.45;;;4.57;;
34353;SDS011;20618;0.000;0.000;2023-04-28T08:19:04;14.25;;;3.85;;
34353;SDS011;20618;0.000;0.000;2023-04-28T08:21:30;14.93;;;4.18;;
34353;SDS011;20618;0.000;0.000;2023-04-28T08:23:56;15.32;;;3.60;;
34353;SDS011;20618;0.000;0.000;2023-04-28T08:26:23;14.45;;;3.97;;
34353;SDS011;20618;0.000;0.000;2023-04-28T08:28:50;12.32;;;4.43;;
34353;SDS011;20618;0.000;0.000;2023-04-28T08:31:16;11.93;;;3.67;;
34353;SDS011;20618;0.000;0.000;2023-04-28T08:33:42;12.27;;;3.70;;
34353;SDS011;20618;0.000;0.000;2023-04-28T08:36:12;15.68;;;4.43;;
34353;SDS011;20618;0.000;0.000;2023-04-28T08:38:42;15.50;;;4.07;;
34353;SDS011;20618;0.000;0.000;2023-04-28T08:41:09;18.27;;;4.93;;
34353;SDS011;20618;0.000;0.000;2023-04-28T08:43:35;19.50;;;5.00;;
34353;SDS011;20618;0.000;0.000;2023-04-28T08:46:04;14.88;;;3.97;;
34353;SDS011;20618;0.000;0.000;2023-04-28T08:48:31;22.90;;;4.97;;
34353;SDS011;20618;0.000;0.000;2023-04-28T08:50:58;18.88;;;5.35;;
34353;SDS011;20618;0.000;0.000;2023-04-28T08:53:25;23.50;;;4.60;;
34353;SDS011;20618;0.000;0.000;2023-04-28T08:55:55;18.08;;;5.22;;
34353;SDS011;20618;0.000;0.000;2023-04-28T08:58:22;23.38;;;5.80;;
34353;SDS011;20618;0.000;0.000;2023-04-28T09:00:50;20.58;;;5.20;;
34353;SDS011;20618;0.000;0.000;2023-04-28T09:03:16;23.92;;;5.45;;
34353;SDS011;20618;0.000;0.000;2023-04-28T09:05:43;18.08;;;4.90;;
34353;SDS011;20618;0.000;0.000;2023-04-28T09:08:09;24.40;;;6.60;;
34353;SDS011;20618;0.000;0.000;2023-04-28T09:10:36;28.33;;;5.60;;
34353;SDS011;20618;0.000;0.000;2023-04-28T09:13:02;17.20;;;4.63;;
34353;SDS011;20618;0.000;0.000;2023-04-28T09:15:38;26.70;;;5.32;;
34353;SDS011;20618;0.000;0.000;2023-04-28T09:18:09;25.70;;;5.18;;
34353;SDS011;20618;0.000;0.000;2023-04-28T09:20:39;26.50;;;5.75;;
34353;SDS011;20618;0.000;0.000;2023-04-28T09:23:12;26.80;;;5.53;;
34353;SDS011;20618;0.000;0.000;2023-04-28T09:25:39;20.33;;;4.80;;
34353;SDS011;20618;0.000;0.000;2023-04-28T09:28:20;20.80;;;4.78;;
34353;SDS011;20618;0.000;0.000;2023-04-28T09:30:47;16.80;;;4.57;;
34353;SDS011;20618;0.000;0.000;2023-04-28T09:33:13;21.90;;;4.75;;
34353;SDS011;20618;0.000;0.000;2023-04-28T09:35:43;18.77;;;5.18;;
34353;SDS011;20618;0.000;0.000;2023-04-28T09:38:11;21.75;;;5.10;;
34353;SDS011;20618;0.000;0.000;2023-04-28T09:40:48;19.15;;;5.18;;
34353;SDS011;20618;0.000;0.000;2023-04-28T09:43:28;36.25;;;5.97;;
34353;SDS011;20618;0.000;0.000;2023-04-28T09:45:54;20.93;;;5.73;;
34353;SDS011;20618;0.000;0.000;2023-04-28T09:50:53;23.83;;;5.32;;
34353;SDS011;20618;0.000;0.000;2023-04-28T09:53:21;17.75;;;4.38;;
34353;SDS011;20618;0.000;0.000;2023-04-28T09:55:48;21.45;;;5.25;;
34353;SDS011;20618;0.000;0.000;2023-04-28T09:58:15;23.52;;;5.20;;
34353;SDS011;20618;0.000;0.000;2023-04-28T10:00:41;25.70;;;4.90;;
34353;SDS011;20618;0.000;0.000;2023-04-28T10:03:08;23.10;;;5.18;;
34353;SDS011;20618;0.000;0.000;2023-04-28T10:05:34;23.50;;;5.47;;
34353;SDS011;20618;0.000;0.000;2023-04-28T10:08:01;17.52;;;4.93;;
34353;SDS011;20618;0.000;0.000;2023-04-28T10:10:27;19.30;;;4.95;;
34353;SDS011;20618;0.000;0.000;2023-04-28T10:12:53;23.00;;;5.25;;
34353;SDS011;20618;0.000;0.000;2023-04-28T10:15:20;23.52;;;6.22;;
34353;SDS011;20618;0.000;0.000;2023-04-28T10:17:47;25.70;;;5.90;;
34353;SDS011;20618;0.000;0.000;2023-04-28T10:20:15;29.30;;;7.65;;
34353;SDS011;20618;0.000;0.000;2023-04-28T10:27:43;25.17;;;6.82;;
34353;SDS011;20618;0.000;0.000;2023-04-28T10:30:14;32.08;;;7.38;;
34353;SDS011;20618;0.000;0.000;2023-04-28T10:32:40;24.60;;;6.28;;
34353;SDS011;20618;0.000;0.000;2023-04-28T10:40:39;34.65;;;7.10;;
34353;SDS011;20618;0.000;0.000;2023-04-28T10:43:06;33.78;;;6.45;;
34353;SDS011;20618;0.000;0.000;2023-04-28T10:48:14;35.42;;;6.97;;
34353;SDS011;20618;0.000;0.000;2023-04-28T10:58:39;34.13;;;6.25;;
34353;SDS011;20618;0.000;0.000;2023-04-28T11:03:47;29.92;;;6.00;;
34353;SDS011;20618;0.000;0.000;2023-04-28T11:09:02;22.08;;;4.63;;
34353;SDS011;20618;0.000;0.000;2023-04-28T11:11:29;20.17;;;4.32;;
34353;SDS011;20618;0.000;0.000;2023-04-28T11:16:52;21.48;;;4.95;;
34353;SDS011;20618;0.000;0.000;2023-04-28T11:19:19;21.65;;;5.55;;
34353;SDS011;20618;0.000;0.000;2023-04-28T11:21:46;23.30;;;5.43;;
34353;SDS011;20618;0.000;0.000;2023-04-28T11:24:12;23.67;;;4.55;;
34353;SDS011;20618;0.000;0.000;2023-04-28T11:26:39;25.40;;;5.32;;
34353;SDS011;20618;0.000;0.000;2023-04-28T11:29:05;22.52;;;5.25;;
34353;SDS011;20618;0.000;0.000;2023-04-28T11:31:31;22.40;;;5.30;;
34353;SDS011;20618;0.000;0.000;2023-04-28T11:33:59;22.27;;;5.22;;
34353;SDS011;20618;0.000;0.000;2023-04-28T11:36:35;22.15;;;4.97;;
34353;SDS011;20618;0.000;0.000;2023-04-28T11:39:06;28.00;;;5.22;;
34353;SDS011;20618;0.000;0.000;2023-04-28T11:43:59;28.85;;;5.00;;
34353;SDS011;20618;0.000;0.000;2023-04-28T11:46:25;26.15;;;5.60;;
34353;SDS011;20618;0.000;0.000;2023-04-28T11:49:02;37.88;;;6.43;;
34353;SDS011;20618;0.000;0.000;2023-04-28T11:53:57;26.17;;;5.68;;
34353;SDS011;20618;0.000;0.000;2023-04-28T11:56:24;34.50;;;6.45;;
34353;SDS011;20618;0.000;0.000;2023-04-28T11:59:03;34.53;;;6.47;;
34353;SDS011;20618;0.000;0.000;2023-04-28T12:01:30;41.70;;;6.85;;
34353;SDS011;20618;0.000;0.000;2023-04-28T12:03:56;41.20;;;6.22;;
34353;SDS011;20618;0.000;0.000;2023-04-28T12:06:22;37.03;;;6.25;;
34353;SDS011;20618;0.000;0.000;2023-04-28T12:08:49;38.42;;;6.57;;
34353;SDS011;20618;0.000;0.000;2023-04-28T12:11:18;40.28;;;6.75;;
34353;SDS011;20618;0.000;0.000;2023-04-28T12:14:01;35.95;;;5.68;;
34353;SDS011;20618;0.000;0.000;2023-04-28T12:16:37;43.92;;;6.05;;
34353;SDS011;20618;0.000;0.000;2023-04-28T12:19:07;35.80;;;4.80;;
34353;SDS011;20618;0.000;0.000;2023-04-28T12:21:35;31.30;;;5.60;;
34353;SDS011;20618;0.000;0.000;2023-04-28T12:24:23;33.63;;;5.53;;
34353;SDS011;20618;0.000;0.000;2023-04-28T12:26:50;29.15;;;5.50;;
34353;SDS011;20618;0.000;0.000;2023-04-28T12:29:37;30.73;;;5.70;;
34353;SDS011;20618;0.000;0.000;2023-04-28T12:32:04;22.52;;;5.35;;
34353;SDS011;20618;0.000;0.000;2023-04-28T12:34:30;34.45;;;5.80;;
34353;SDS011;20618;0.000;0.000;2023-04-28T12:36:58;35.45;;;6.30;;
34353;SDS011;20618;0.000;0.000;2023-04-28T12:39:25;41.53;;;5.80;;
34353;SDS011;20618;0.000;0.000;2023-04-28T12:41:51;38.92;;;6.85;;
34353;SDS011;20618;0.000;0.000;2023-04-28T12:44:19;32.22;;;5.60;;
34353;SDS011;20618;0.000;0.000;2023-04-28T12:46:47;30.90;;;5.80;;
34353;SDS011;20618;0.000;0.000;2023-04-28T12:49:13;37.65;;;5.78;;
34353;SDS011;20618;0.000;0.000;2023-04-28T12:51:40;42.47;;;5.70;;
34353;SDS011;20618;0.000;0.000;2023-04-28T12:54:06;30.55;;;5.65;;
34353;SDS011;20618;0.000;0.000;2023-04-28T12:56:32;36.88;;;5.55;;
34353;SDS011;20618;0.000;0.000;2023-04-28T12:58:59;36.53;;;6.75;;
34353;SDS011;20618;0.000;0.000;2023-04-28T13:01:28;25.15;;;5.18;;
34353;SDS011;20618;0.000;0.000;2023-04-28T13:03:55;29.48;;;5.60;;
34353;SDS011;20618;0.000;0.000;2023-04-28T13:06:21;26.58;;;5.32;;
34353;SDS011;20618;0.000;0.000;2023-04-28T13:08:47;32.10;;;5.72;;
34353;SDS011;20618;0.000;0.000;2023-04-28T13:11:14;24.80;;;5.22;;
34353;SDS011;20618;0.000;0.000;2023-04-28T13:13:40;25.83;;;6.13;;
34353;SDS011;20618;0.000;0.000;2023-04-28T13:16:06;24.30;;;5.25;;
34353;SDS011;20618;0.000;0.000;2023-04-28T13:18:33;30.92;;;5.35;;
34353;SDS011;20618;0.000;0.000;2023-04-28T13:21:00;29.38;;;5.68;;
34353;SDS011;20618;0.000;0.000;2023-04-28T13:23:26;24.88;;;6.05;;
34353;SDS011;20618;0.000;0.000;2023-04-28T13:25:52;24.80;;;5.20;;
34353;SDS011;20618;0.000;0.000;2023-04-28T13:28:18;29.48;;;5.55;;
34353;SDS011;20618;0.000;0.000;2023-04-28T13:30:44;29.42;;;5.68;;
34353;SDS011;20618;0.000;0.000;2023-04-28T13:33:11;21.98;;;4.90;;
34353;SDS011;20618;0.000;0.000;2023-04-28T13:35:37;24.85;;;6.32;;
34353;SDS011;20618;0.000;0.000;2023-04-28T13:38:03;29.55;;;6.05;;
34353;SDS011;20618;0.000;0.000;2023-04-28T13:40:29;31.98;;;5.78;;
34353;SDS011;20618;0.000;0.000;2023-04-28T13:42:56;28.88;;;5.85;;
34353;SDS011;20618;0.000;0.000;2023-04-28T13:45:22;22.60;;;5.00;;
34353;SDS011;20618;0.000;0.000;2023-04-28T13:47:50;26.92;;;5.45;;
34353;SDS011;20618;0.000;0.000;2023-04-28T13:50:17;29.77;;;5.28;;
34353;SDS011;20618;0.000;0.000;2023-04-28T13:52:43;24.67;;;5.15;;
34353;SDS011;20618;0.000;0.000;2023-04-28T13:55:09;27.33;;;5.53;;
34353;SDS011;20618;0.000;0.000;2023-04-28T13:57:35;28.40;;;5.30;;
34353;SDS011;20618;0.000;0.000;2023-04-28T14:00:02;35.75;;;6.15;;
34353;SDS011;20618;0.000;0.000;2023-04-28T14:02:29;28.38;;;5.90;;
34353;SDS011;20618;0.000;0.000;2023-04-28T14:04:55;37.92;;;5.68;;
34353;SDS011;20618;0.000;0.000;2023-04-28T14:07:22;30.08;;;5.47;;
34353;SDS011;20618;0.000;0.000;2023-04-28T14:09:48;41.50;;;5.78;;
34353;SDS011;20618;0.000;0.000;2023-04-28T14:12:14;27.20;;;5.22;;
34353;SDS011;20618;0.000;0.000;2023-04-28T14:14:41;28.60;;;5.30;;
34353;SDS011;20618;0.000;0.000;2023-04-28T14:17:07;30.05;;;5.50;;
34353;SDS011;20618;0.000;0.000;2023-04-28T14:19:33;27.75;;;5.85;;
34353;SDS011;20618;0.000;0.000;2023-04-28T14:22:00;30.42;;;6.18;;
34353;SDS011;20618;0.000;0.000;2023-04-28T14:24:26;29.00;;;5.88;;
34353;SDS011;20618;0.000;0.000;2023-04-28T14:26:52;30.45;;;4.93;;
34353;SDS011;20618;0.000;0.000;2023-04-28T14:29:19;22.70;;;4.47;;
34353;SDS011;20618;0.000;0.000;2023-04-28T14:31:45;36.45;;;5.18;;
34353;SDS011;20618;0.000;0.000;2023-04-28T14:34:11;30.30;;;5.28;;
34353;SDS011;20618;0.000;0.000;2023-04-28T14:36:37;34.00;;;6.18;;
34353;SDS011;20618;0.000;0.000;2023-04-28T14:39:05;31.33;;;5.15;;
34353;SDS011;20618;0.000;0.000;2023-04-28T14:41:32;26.13;;;5.13;;
34353;SDS011;20618;0.000;0.000;2023-04-28T14:43:58;23.25;;;5.10;;
34353;SDS011;20618;0.000;0.000;2023-04-28T14:46:24;24.80;;;4.85;;
34353;SDS011;20618;0.000;0.000;2023-04-28T14:48:50;29.02;;;5.25;;
34353;SDS011;20618;0.000;0.000;2023-04-28T14:51:17;28.60;;;5.93;;
34353;SDS011;20618;0.000;0.000;2023-04-28T14:53:44;36.17;;;5.75;;
34353;SDS011;20618;0.000;0.000;2023-04-28T14:56:10;34.15;;;5.75;;
34353;SDS011;20618;0.000;0.000;2023-04-28T14:58:37;31.02;;;5.20;;
34353;SDS011;20618;0.000;0.000;2023-04-28T15:01:03;31.23;;;5.30;;
34353;SDS011;20618;0.000;0.000;2023-04-28T15:03:30;30.25;;;5.93;;
34353;SDS011;20618;0.000;0.000;2023-04-28T15:05:56;35.38;;;5.72;;
34353;SDS011;20618;0.000;0.000;2023-04-28T15:08:22;32.80;;;6.15;;
34353;SDS011;20618;0.000;0.000;2023-04-28T15:10:49;33.95;;;6.40;;
34353;SDS011;20618;0.000;0.000;2023-04-28T15:13:15;35.60;;;6.00;;
34353;SDS011;20618;0.000;0.000;2023-04-28T15:15:41;32.90;;;6.43;;
34353;SDS011;20618;0.000;0.000;2023-04-28T15:18:07;42.17;;;6.68;;
34353;SDS011;20618;0.000;0.000;2023-04-28T15:20:34;21.92;;;5.97;;
34353;SDS011;20618;0.000;0.000;2023-04-28T15:23:02;36.08;;;5.65;;
34353;SDS011;20618;0.000;0.000;2023-04-28T15:25:28;33.17;;;6.05;;
34353;SDS011;20618;0.000;0.000;2023-04-28T15:27:55;35.95;;;6.53;;
34353;SDS011;20618;0.000;0.000;2023-04-28T15:30:21;28.70;;;5.47;;